Greensboro, NC

6:12 AM EST on December 13, 2019 (GMT -0500)
East Wendover | | Change Station
Active Advisory: Winter Weather Advisory

Elev 827 ft 36.09 °N, 79.76 °W | Updated 3 seconds ago

Rain
Rain
32 °F
Feels Like 32 °F
N
0
Wind Variable Wind from NNW
Gusts 6.0 mph

Today
High -- | Low -- °F
--% Chance of Precip.
Yesterday
High -- | Low -- °F
Precip. -- in
Pressure 30.29 in
Visibility 2.5 miles
Clouds Mostly Cloudy 500 ft
Mostly Cloudy 2200 ft
Overcast 4800 ft
Windchill 32 °F
Dew Point 31 °F
Humidity 94%
Rainfall 0.05 in
Snow Depth Not available.
7:21 AM 5:05 PM
Full, 98% visible
METAR KGSO 131054Z 06010KT 2 1/2SM FZRA BR BKN005 BKN022 OVC048 00/M01 A3027 RMK AO2 SLP257 P0012 I1004 T00001006
Pressure 30.29 in
Visibility 2.5 miles
Clouds Mostly Cloudy 500 ft
Mostly Cloudy 2200 ft
Overcast 4800 ft
Windchill 32 °F
Dew Point 31 °F
Humidity 94%
Rainfall 0.05 in
Snow Depth Not available.
7:21 AM 5:05 PM
Full, 98% visible
METAR KGSO 131054Z 06010KT 2 1/2SM FZRA BR BKN005 BKN022 OVC048 00/M01 A3027 RMK AO2 SLP257 P0012 I1004 T00001006

Get Your Daily Forecast Email!

Thanks for signing up!

Be on the lookout for a verification email in your inbox.

You'll start receiving severe weather alerts in your inbox..

×

10-Day Weather Forecast

Almanac

Astronomy

Dec. 13, 2019 Rise Set
Actual Time
Civil Twilight
Nautical Twilight
Astronomical Twilight
Moon
Length of Visible Light
Length of Day
Tomorrow will be .
, % of the Moon is Illuminated

Today's Extremes

State Highs State Lows

Community

WunderPhotos

Category 6

Welcome to Category 6. This is the collective home for Weather Underground's featured writeups by Dr. Jeff Masters (right), Bob Henson (left), Chris Burt, and other regular contributors.

Nearby

Air Quality

  Air Quality AQ Index Pollutant
Not available.

Snow Depth

Station Depth Elevation

Earthquake Activity

City Distance Mag. Time & Date
Minimum magnitude displayed is 2.5.

Coastal Water Temperatures

Place Temperature

Stations

Nearby Weather Stations

Station Location Temp. Windchill Dew Point Humidity Wind Precip. Elev Updated Type
                   

Watches & Warnings

Winter Weather Advisory
Issued: 3:59 AM EST Dec. 13, 2019 – National Weather Service

... Winter Weather Advisory remains in effect until noon EST
today...

* what... freezing rain expected. Total ice accumulations of less
than one tenth of an inch.

* Where... Forsyth, Guilford and Davidson counties.

* When... mainly before 8 am, but some freezing rain could linger
until noon EST today.

* Additional details... light accumulations of ice, while short
lived, could impact the morning commute.

Precautionary/preparedness actions...

Slow down and use caution while traveling, especially before
daybreak when the threat of icy conditions will be greatest.

The latest Road conditions for North Carolina can be found online
at drivenc.Gov.